Estaca de Bares, Galicia

latitud = 43° 47' 14''N | longitud = 007° 41' 00''W
59 metros sobre el nivel del mar | datos mensuales

Fecha, hora, temperatura, viento dirección y velocidad, humedad y presión.

  • 16-08-2018 02:00:00 | 19.70°C | Este |14.00 km/h | 86.00% | 1007.90 hPa
  • 16-08-2018 01:00:00 | 19.90°C | Este |23.00 km/h | 86.00% | 1007.50 hPa
  • 16-08-2018 00:00:00 | 19.70°C | Este |17.00 km/h | 86.00% | 1007.70 hPa
  • 15-08-2018 23:00:00 | 19.70°C | Este |20.00 km/h | 86.00% | 1007.40 hPa
  • 15-08-2018 22:00:00 | 19.50°C | Este |18.00 km/h | 86.00% | 1007.20 hPa
  • 15-08-2018 21:00:00 | 20.10°C | Este |24.00 km/h | 85.00% | 1006.70 hPa
  • 15-08-2018 20:00:00 | 20.50°C | Este |19.00 km/h | 82.00% | 1006.60 hPa
  • 15-08-2018 19:00:00 | 21.40°C | Este |25.00 km/h | 79.00% | 1007.00 hPa
  • 15-08-2018 18:00:00 | 21.40°C | Este |24.00 km/h | 81.00% | 1007.10 hPa
  • 15-08-2018 17:00:00 | 22.10°C | Este |25.00 km/h | 75.00% | 1007.70 hPa
  • 15-08-2018 16:00:00 | 22.00°C | Este |32.00 km/h | 75.00% | 1007.70 hPa
  • 15-08-2018 15:00:00 | 22.50°C | Este |25.00 km/h | 70.00% | 1008.10 hPa
  • 15-08-2018 14:00:00 | 22.20°C | Este |27.00 km/h | 71.00% | 1008.00 hPa
  • 15-08-2018 13:00:00 | 22.10°C | Este |30.00 km/h | 71.00% | 1008.10 hPa
  • 15-08-2018 12:00:00 | 21.50°C | Este |33.00 km/h | 71.00% | 1008.10 hPa
  • 15-08-2018 11:00:00 | 20.80°C | Este |33.00 km/h | 75.00% | 1007.70 hPa
  • 15-08-2018 10:00:00 | 20.00°C | Este |38.00 km/h | 78.00% | 1007.70 hPa
  • 15-08-2018 09:00:00 | 19.40°C | Sudeste |41.00 km/h | 80.00% | 1007.70 hPa
  • 15-08-2018 08:00:00 | 18.90°C | Este |33.00 km/h | 83.00% | 1007.70 hPa
  • 15-08-2018 07:00:00 | 18.70°C | Este |32.00 km/h | 85.00% | 1007.80 hPa
  • 15-08-2018 06:00:00 | 18.80°C | Este |34.00 km/h | 85.00% | 1008.30 hPa
  • 15-08-2018 05:00:00 | 19.00°C | Este |31.00 km/h | 84.00% | 1008.80 hPa
  • 15-08-2018 04:00:00 | 19.10°C | Este |32.00 km/h | 82.00% | 1009.40 hPa
  • 15-08-2018 03:00:00 | 19.20°C | Este |33.00 km/h | 83.00% | 1009.90 hPa